Time;durP1;ratioP1;P1;durP2;ratioP2;P2;SDS_P1;SDS_P2;PMS_P1;PMS_P2;Temp;Humidity;BMP_temperature;BMP_pressure;BME280_temperature;BME280_humidity;BME280_pressure;Samples;Min_cycle;Max_cycle;Signal;HPM_P1;HPM_P2
2021/07/21 00:00:16;;;;;;;9.98;8.95;;;17.40;89.50;;;;;;5074923;28;20068;-52
2021/07/21 00:02:41;;;;;;;12.43;8.32;;;17.40;89.50;;;;;;5075122;28;20488;-50
2021/07/21 00:05:09;;;;;;;9.60;8.20;;;17.40;89.30;;;;;;5075032;28;20120;-52
2021/07/21 00:07:35;;;;;;;8.52;7.35;;;17.30;89.50;;;;;;5074492;28;20087;-51
2021/07/21 00:10:02;;;;;;;9.48;7.90;;;17.40;89.30;;;;;;5074779;28;20048;-55
2021/07/21 00:15:13;;;;;;;12.27;8.70;;;17.30;89.80;;;;;;5076246;28;20024;-56
2021/07/21 00:17:38;;;;;;;12.60;9.15;;;17.30;89.80;;;;;;5076108;28;20040;-49
2021/07/21 00:20:08;;;;;;;19.08;12.93;;;17.30;90.00;;;;;;5074899;28;20024;-50
2021/07/21 00:22:44;;;;;;;42.85;27.75;;;17.20;90.00;;;;;;5073372;28;20466;-52
2021/07/21 00:25:13;;;;;;;32.63;20.85;;;17.20;90.20;;;;;;5073652;28;20033;-54
2021/07/21 00:27:40;;;;;;;23.60;15.45;;;17.10;90.30;;;;;;5074445;28;20373;-51
2021/07/21 00:30:10;;;;;;;19.30;13.65;;;17.20;90.50;;;;;;5073465;28;20476;-52
2021/07/21 00:32:36;;;;;;;22.35;17.20;;;17.30;90.40;;;;;;5074531;28;20032;-52
2021/07/21 00:35:07;;;;;;;26.08;20.15;;;17.30;90.70;;;;;;5075953;28;20484;-55
2021/07/21 00:37:32;;;;;;;22.00;18.58;;;17.30;90.30;;;;;;5073828;28;20040;-53
2021/07/21 00:39:58;;;;;;;21.92;18.60;;;17.40;90.50;;;;;;5074151;28;20043;-55
2021/07/21 00:42:23;;;;;;;16.90;13.77;;;17.40;90.50;;;;;;5074547;28;20063;-49
2021/07/21 00:44:49;;;;;;;15.93;13.50;;;17.30;90.50;;;;;;5074047;28;20039;-53
2021/07/21 00:47:15;;;;;;;15.32;12.77;;;17.30;90.50;;;;;;5074030;28;20094;-51
2021/07/21 00:49:41;;;;;;;14.85;11.95;;;17.30;90.50;;;;;;5074017;28;20036;-56
2021/07/21 00:52:08;;;;;;;12.20;10.48;;;17.30;90.50;;;;;;5074139;28;20094;-54
2021/07/21 00:54:35;;;;;;;14.05;10.15;;;17.30;90.30;;;;;;5073780;28;20055;-53
2021/07/21 00:57:02;;;;;;;11.90;10.35;;;17.30;90.20;;;;;;5073508;28;20396;-54
2021/07/21 00:59:28;;;;;;;11.57;10.32;;;17.20;90.20;;;;;;5073626;28;20029;-54
2021/07/21 01:01:54;;;;;;;13.50;10.10;;;17.20;90.30;;;;;;5073939;28;20089;-52
2021/07/21 01:04:20;;;;;;;11.82;10.15;;;17.10;90.30;;;;;;5074132;28;20033;-49
2021/07/21 01:06:45;;;;;;;13.98;9.52;;;17.20;90.40;;;;;;5073737;28;20032;-50
2021/07/21 01:09:11;;;;;;;15.27;11.80;;;17.20;90.30;;;;;;5073449;28;20029;-51
2021/07/21 01:11:50;;;;;;;14.98;13.25;;;17.10;90.30;;;;;;5073550;28;20024;-50
2021/07/21 01:14:28;;;;;;;15.38;13.43;;;17.10;90.30;;;;;;5073398;28;20020;-52
2021/07/21 01:16:59;;;;;;;20.48;16.27;;;17.10;90.40;;;;;;5071995;28;20029;-52
2021/07/21 01:19:59;;;;;;;15.77;11.70;;;17.10;90.60;;;;;;5073259;28;20043;-52
2021/07/21 01:22:38;;;;;;;11.57;10.38;;;17.10;90.60;;;;;;5073488;28;20025;-51
2021/07/21 01:25:14;;;;;;;11.32;9.15;;;17.00;90.50;;;;;;5072950;28;20059;-55
2021/07/21 01:28:02;;;;;;;13.57;10.75;;;16.90;90.50;;;;;;5073294;28;20063;-50
2021/07/21 01:30:30;;;;;;;10.75;8.70;;;16.90;90.70;;;;;;5073401;28;20039;-52
2021/07/21 01:33:01;;;;;;;10.13;8.80;;;16.80;90.40;;;;;;5073371;28;20115;-49
2021/07/21 01:35:38;;;;;;;11.25;10.05;;;16.50;91.00;;;;;;5071653;28;20029;-51
2021/07/21 01:38:18;;;;;;;9.40;8.45;;;16.50;91.30;;;;;;5075605;28;20396;-55
2021/07/21 01:40:53;;;;;;;13.70;8.43;;;16.50;91.40;;;;;;5073699;28;20031;-55
2021/07/21 01:43:22;;;;;;;9.90;7.88;;;16.40;91.50;;;;;;5073655;28;20123;-51
2021/07/21 01:45:52;;;;;;;9.32;7.75;;;16.40;91.70;;;;;;5072624;28;20036;-54
2021/07/21 01:48:19;;;;;;;9.07;8.18;;;16.30;91.70;;;;;;5072660;28;20043;-49
2021/07/21 01:50:47;;;;;;;10.65;8.43;;;16.30;91.70;;;;;;5072978;28;20063;-52
2021/07/21 01:53:13;;;;;;;11.63;8.13;;;16.30;91.80;;;;;;5072797;28;20357;-52
2021/07/21 01:55:40;;;;;;;10.32;9.23;;;16.30;91.90;;;;;;5072531;28;20166;-56
2021/07/21 01:58:07;;;;;;;10.60;8.10;;;16.20;92.00;;;;;;5073047;28;20029;-52
2021/07/21 02:00:34;;;;;;;10.48;8.80;;;16.30;92.00;;;;;;5072786;28;20488;-49
2021/07/21 02:03:01;;;;;;;10.82;7.95;;;16.20;92.00;;;;;;5072857;28;20112;-51
2021/07/21 02:05:27;;;;;;;11.68;9.13;;;16.20;91.90;;;;;;5072323;28;20033;-53
2021/07/21 02:07:55;;;;;;;9.65;8.65;;;16.20;92.00;;;;;;5072021;28;20043;-50
2021/07/21 02:10:24;;;;;;;10.20;8.50;;;16.20;92.10;;;;;;5070765;28;20031;-52
2021/07/21 02:12:55;;;;;;;13.88;8.73;;;16.10;92.20;;;;;;5072058;28;20035;-54
2021/07/21 02:15:22;;;;;;;10.40;8.60;;;16.10;92.10;;;;;;5072428;28;20027;-54
2021/07/21 02:17:48;;;;;;;12.63;8.88;;;16.10;92.20;;;;;;5071899;28;20037;-49
2021/07/21 02:20:14;;;;;;;11.20;8.95;;;16.10;92.30;;;;;;5072625;28;20029;-53
2021/07/21 02:22:42;;;;;;;12.68;9.35;;;16.10;92.40;;;;;;5072622;28;20672;-52
2021/07/21 02:25:09;;;;;;;11.88;8.57;;;16.10;92.30;;;;;;5072113;28;20505;-59
2021/07/21 02:27:36;;;;;;;10.88;9.57;;;16.00;92.30;;;;;;5071791;28;20028;-53
2021/07/21 02:30:07;;;;;;;11.93;9.07;;;16.00;92.40;;;;;;5070693;28;20552;-50
2021/07/21 02:32:39;;;;;;;9.75;8.77;;;16.00;92.30;;;;;;5072259;28;20078;-52
2021/07/21 02:35:05;;;;;;;9.98;8.85;;;16.00;92.60;;;;;;5072356;28;20537;-51
2021/07/21 02:37:31;;;;;;;10.95;9.02;;;15.90;92.60;;;;;;5053815;28;20068;-51
2021/07/21 02:39:57;;;;;;;11.82;8.98;;;15.80;92.80;;;;;;5071861;28;20052;-49
2021/07/21 02:42:22;;;;;;;13.07;9.10;;;15.80;93.00;;;;;;5071937;28;20103;-50
2021/07/21 02:44:51;;;;;;;11.48;9.70;;;15.80;92.90;;;;;;5070906;28;20028;-50
2021/07/21 02:47:18;;;;;;;11.07;8.90;;;15.70;93.00;;;;;;5070669;28;20025;-49
2021/07/21 02:49:45;;;;;;;10.70;9.60;;;15.60;93.30;;;;;;5072284;28;20032;-55
2021/07/21 02:52:17;;;;;;;13.82;9.63;;;15.60;93.40;;;;;;5071404;28;20503;-48
2021/07/21 02:54:53;;;;;;;10.93;9.20;;;15.60;93.40;;;;;;5072396;28;20063;-51
2021/07/21 02:57:42;;;;;;;10.65;9.05;;;15.60;93.50;;;;;;5070399;28;20028;-54
2021/07/21 03:00:16;;;;;;;11.10;9.73;;;15.70;93.50;;;;;;5074642;28;20035;-57
2021/07/21 03:02:42;;;;;;;;;;;15.70;93.30;;;;;;5074695;28;20032;-55
2021/07/21 03:05:11;;;;;;;19.27;10.70;;;15.80;92.90;;;;;;5072005;28;20331;-57
2021/07/21 03:07:48;;;;;;;12.70;9.65;;;15.80;93.10;;;;;;5053906;28;20128;-50
2021/07/21 03:10:14;;;;;;;11.63;8.90;;;15.80;93.10;;;;;;5070585;28;20107;-51
2021/07/21 03:12:45;;;;;;;11.60;9.45;;;15.80;93.20;;;;;;5071924;28;20082;-54
2021/07/21 03:15:13;;;;;;;15.13;9.80;;;15.80;93.20;;;;;;5071815;28;20472;-50
2021/07/21 03:17:40;;;;;;;12.32;9.73;;;15.80;93.20;;;;;;5071605;28;20036;-49
2021/07/21 03:20:07;;;;;;;15.23;10.13;;;15.90;93.20;;;;;;5072811;28;20068;-53
2021/07/21 03:22:37;;;;;;;11.38;9.30;;;15.90;93.10;;;;;;5076007;28;20028;-49
2021/07/21 03:25:07;;;;;;;13.80;9.40;;;15.90;93.10;;;;;;5075543;28;20031;-50
2021/07/21 03:27:35;;;;;;;10.82;9.48;;;15.90;93.00;;;;;;5075394;28;20496;-50
2021/07/21 03:30:03;;;;;;;12.82;9.50;;;15.90;93.20;;;;;;5075643;28;20046;-49
2021/07/21 03:32:29;;;;;;;12.73;9.00;;;15.90;93.30;;;;;;5075530;28;20078;-53
2021/07/21 03:34:55;;;;;;;13.57;9.68;;;16.00;93.10;;;;;;5075285;28;20048;-53
2021/07/21 03:37:22;;;;;;;12.45;10.32;;;15.90;92.90;;;;;;5075384;28;20053;-53
2021/07/21 03:39:54;;;;;;;14.15;10.52;;;15.90;92.90;;;;;;5075306;28;20036;-52
2021/07/21 03:42:23;;;;;;;13.18;9.73;;;15.90;92.90;;;;;;5075376;28;20412;-54
2021/07/21 03:44:50;;;;;;;12.40;10.20;;;15.80;93.10;;;;;;5075529;28;20064;-52
2021/07/21 03:47:17;;;;;;;14.05;10.07;;;15.60;93.60;;;;;;5074704;28;20033;-58
2021/07/21 03:49:43;;;;;;;15.23;10.45;;;15.60;93.90;;;;;;5075005;28;20392;-50
2021/07/21 03:52:10;;;;;;;14.27;10.02;;;15.70;93.90;;;;;;5075166;28;20025;-53
2021/07/21 03:54:36;;;;;;;14.63;9.50;;;15.70;93.80;;;;;;5075085;28;20032;-54
2021/07/21 03:57:04;;;;;;;12.10;10.32;;;15.70;93.90;;;;;;5074917;28;20082;-54
2021/07/21 03:59:29;;;;;;;15.30;10.10;;;15.70;94.10;;;;;;5073382;28;20024;-54
2021/07/21 04:01:56;;;;;;;16.45;10.55;;;15.70;94.10;;;;;;5074766;28;20044;-55
2021/07/21 04:04:23;;;;;;;14.23;10.18;;;15.80;94.00;;;;;;5075446;28;20020;-53
2021/07/21 04:06:50;;;;;;;14.80;10.55;;;15.80;93.80;;;;;;5074763;28;20032;-54
2021/07/21 04:09:19;;;;;;;15.40;11.02;;;15.90;93.80;;;;;;5075588;28;20033;-54
2021/07/21 04:11:45;;;;;;;12.55;10.20;;;15.90;93.70;;;;;;5074964;28;20469;-54
2021/07/21 04:14:14;;;;;;;13.43;10.50;;;15.90;93.70;;;;;;5074585;28;20024;-57
2021/07/21 04:16:41;;;;;;;11.90;10.70;;;15.90;93.70;;;;;;5074437;28;20032;-55
2021/07/21 04:19:08;;;;;;;15.13;10.73;;;15.90;93.80;;;;;;5074937;28;20032;-52
2021/07/21 04:21:36;;;;;;;16.30;10.20;;;15.80;93.90;;;;;;5074382;28;20555;-49
2021/07/21 04:24:03;;;;;;;17.65;14.88;;;15.90;93.90;;;;;;5076330;28;20435;-58
2021/07/21 04:26:29;;;;;;;16.83;12.25;;;15.80;94.00;;;;;;5074931;28;20089;-51
2021/07/21 04:28:55;;;;;;;14.68;10.30;;;15.90;94.10;;;;;;5073077;28;20044;-54
2021/07/21 04:31:27;;;;;;;12.45;10.32;;;15.90;94.10;;;;;;5071936;28;20501;-53
2021/07/21 04:33:57;;;;;;;19.17;10.95;;;15.80;94.00;;;;;;5074578;28;20360;-50
2021/07/21 04:36:24;;;;;;;20.77;11.48;;;15.90;94.00;;;;;;5074246;28;20117;-55
2021/07/21 04:38:51;;;;;;;15.43;11.48;;;15.90;94.10;;;;;;5075563;28;20024;-54
2021/07/21 04:41:21;;;;;;;17.45;12.38;;;16.00;94.10;;;;;;5074738;28;20043;-52
2021/07/21 04:43:47;;;;;;;17.58;11.60;;;16.10;93.90;;;;;;5074179;28;20028;-51
2021/07/21 04:46:13;;;;;;;15.93;11.07;;;16.10;94.10;;;;;;5073934;28;20567;-54
2021/07/21 04:48:40;;;;;;;14.52;11.15;;;16.10;94.10;;;;;;5068881;28;20508;-50
2021/07/21 04:51:07;;;;;;;16.55;10.82;;;16.10;94.00;;;;;;5074528;28;20082;-50
2021/07/21 04:53:32;;;;;;;11.38;10.00;;;16.20;93.90;;;;;;5073965;28;20028;-52
2021/07/21 04:55:58;;;;;;;13.45;10.30;;;16.20;93.90;;;;;;5073757;28;20039;-53
2021/07/21 04:58:24;;;;;;;16.02;10.45;;;16.20;93.90;;;;;;5073398;28;20037;-55
2021/07/21 05:00:51;;;;;;;14.32;10.52;;;16.20;94.00;;;;;;5074306;28;20028;-50
2021/07/21 05:03:18;;;;;;;15.38;10.48;;;16.30;93.80;;;;;;5074052;28;20040;-54
2021/07/21 05:05:44;;;;;;;14.02;9.98;;;16.40;93.80;;;;;;5073295;28;20078;-53
2021/07/21 05:08:09;;;;;;;19.50;12.23;;;16.40;93.70;;;;;;5073543;28;20049;-52
2021/07/21 05:10:35;;;;;;;22.58;12.43;;;16.50;93.70;;;;;;5072285;28;20033;-53
2021/07/21 05:13:01;;;;;;;24.27;12.82;;;16.60;93.50;;;;;;5073650;28;20035;-55
2021/07/21 05:15:28;;;;;;;22.88;12.63;;;16.70;93.30;;;;;;5073642;28;20488;-56
2021/07/21 05:17:53;;;;;;;16.33;11.07;;;16.70;93.40;;;;;;5073815;28;20040;-55
2021/07/21 05:20:19;;;;;;;12.93;10.27;;;16.70;93.50;;;;;;5073537;28;20037;-55
2021/07/21 05:22:47;;;;;;;15.95;10.73;;;16.80;93.50;;;;;;5073858;28;20369;-52
2021/07/21 05:25:17;;;;;;;15.75;11.18;;;16.90;93.40;;;;;;5073625;28;20052;-56
2021/07/21 05:27:43;;;;;;;12.07;10.35;;;16.90;93.30;;;;;;5075165;28;20037;-50
2021/07/21 05:30:10;;;;;;;17.08;10.20;;;17.00;93.20;;;;;;5075398;28;20038;-53
2021/07/21 05:32:36;;;;;;;16.40;10.93;;;17.00;93.10;;;;;;5055523;28;20056;-53
2021/07/21 05:35:02;;;;;;;11.82;9.90;;;17.00;93.00;;;;;;5054747;28;20041;-58
2021/07/21 05:37:28;;;;;;;14.07;10.15;;;17.00;93.10;;;;;;5053120;28;20029;-55
2021/07/21 05:39:54;;;;;;;16.00;10.55;;;17.00;93.20;;;;;;5052964;28;20373;-53
2021/07/21 05:42:19;;;;;;;16.63;11.25;;;16.90;93.30;;;;;;5062794;28;20110;-50
2021/07/21 05:44:45;;;;;;;13.95;10.50;;;17.00;93.30;;;;;;5073123;28;20830;-48
2021/07/21 05:47:10;;;;;;;13.65;11.18;;;17.00;93.30;;;;;;5072942;28;20048;-54
2021/07/21 05:49:36;;;;;;;14.00;11.00;;;17.10;93.30;;;;;;5072561;28;20024;-54
2021/07/21 05:52:02;;;;;;;15.75;10.65;;;17.20;93.20;;;;;;5073017;28;20168;-56
2021/07/21 05:54:28;;;;;;;12.93;10.10;;;17.20;93.20;;;;;;5072950;28;20024;-50
2021/07/21 05:56:53;;;;;;;12.65;10.13;;;17.20;93.20;;;;;;5073375;28;20325;-53
2021/07/21 05:59:19;;;;;;;16.58;11.07;;;17.40;93.40;;;;;;5073332;28;20020;-52
2021/07/21 06:01:44;;;;;;;15.02;10.30;;;17.40;93.00;;;;;;5071962;28;20485;-54
2021/07/21 06:04:10;;;;;;;16.55;10.90;;;17.50;93.00;;;;;;5072710;28;20489;-55
2021/07/21 06:06:36;;;;;;;16.88;12.15;;;17.50;93.20;;;;;;5071965;28;20109;-57
2021/07/21 06:09:05;;;;;;;17.83;11.38;;;17.50;92.90;;;;;;5072404;28;20506;-57
2021/07/21 06:11:31;;;;;;;16.75;10.55;;;17.50;93.20;;;;;;5071827;28;20538;-55
2021/07/21 06:13:57;;;;;;;13.00;11.18;;;17.60;93.10;;;;;;5071945;28;20029;-53
2021/07/21 06:16:24;;;;;;;14.25;10.02;;;17.70;93.10;;;;;;5072533;28;20574;-57
2021/07/21 06:18:50;;;;;;;13.43;10.50;;;17.70;93.10;;;;;;5072728;28;20044;-53
2021/07/21 06:21:15;;;;;;;11.32;10.02;;;17.80;93.20;;;;;;5072027;28;20032;-54
2021/07/21 06:23:41;;;;;;;14.13;10.50;;;17.80;93.50;;;;;;5072643;28;20031;-58
2021/07/21 06:26:07;;;;;;;14.65;10.60;;;17.80;93.40;;;;;;5072283;28;20447;-55
2021/07/21 06:28:34;;;;;;;15.05;10.98;;;18.00;93.10;;;;;;5071387;28;20078;-53
2021/07/21 06:31:00;;;;;;;13.63;10.13;;;18.10;93.00;;;;;;5071598;28;20044;-51
2021/07/21 06:33:25;;;;;;;13.88;11.75;;;18.10;93.10;;;;;;5071913;28;20503;-51
2021/07/21 06:35:51;;;;;;;27.10;12.85;;;18.10;93.20;;;;;;5072394;28;20025;-54
2021/07/21 06:38:16;;;;;;;35.75;16.10;;;18.00;93.60;;;;;;5073048;28;20074;-54
2021/07/21 06:40:42;;;;;;;31.48;14.75;;;18.00;93.70;;;;;;5074364;28;20013;-54
2021/07/21 06:43:08;;;;;;;26.63;12.88;;;18.20;93.50;;;;;;5074478;28;20036;-50
2021/07/21 06:45:34;;;;;;;18.08;12.10;;;18.20;93.50;;;;;;5074685;28;20052;-52
2021/07/21 06:48:00;;;;;;;15.02;10.88;;;18.30;93.50;;;;;;5073905;28;20127;-54
2021/07/21 06:50:26;;;;;;;15.13;10.45;;;18.40;93.30;;;;;;5074606;28;20071;-49
2021/07/21 06:52:53;;;;;;;14.55;11.38;;;18.40;93.30;;;;;;5073288;28;20076;-51
2021/07/21 06:55:19;;;;;;;14.65;11.55;;;18.50;93.20;;;;;;5074495;28;20039;-53
2021/07/21 06:57:44;;;;;;;17.20;11.18;;;18.50;93.50;;;;;;5072046;28;20021;-51
2021/07/21 07:00:10;;;;;;;13.35;10.20;;;18.50;93.60;;;;;;5071527;28;20108;-55
2021/07/21 07:02:36;;;;;;;13.98;10.68;;;18.70;93.30;;;;;;5072353;28;20391;-52
2021/07/21 07:05:02;;;;;;;14.82;11.85;;;18.80;93.10;;;;;;5071702;28;20518;-54
2021/07/21 07:07:27;;;;;;;15.38;11.32;;;18.90;93.00;;;;;;5071463;28;20060;-56
2021/07/21 07:09:53;;;;;;;14.90;12.00;;;18.90;93.00;;;;;;5073754;28;20032;-57
2021/07/21 07:12:19;;;;;;;14.77;11.07;;;19.00;92.80;;;;;;5094201;28;20032;-54
2021/07/21 07:14:44;;;;;;;13.82;10.95;;;19.10;93.00;;;;;;5092045;28;20028;-55
2021/07/21 07:17:10;;;;;;;16.15;11.57;;;19.10;92.90;;;;;;5091010;28;20063;-51
2021/07/21 07:19:36;;;;;;;14.18;10.50;;;19.30;92.50;;;;;;5074849;28;20404;-53
2021/07/21 07:22:02;;;;;;;12.52;10.57;;;19.40;92.20;;;;;;5072141;28;20033;-56
2021/07/21 07:24:29;;;;;;;15.82;10.73;;;19.50;92.00;;;;;;5071664;28;20017;-53
2021/07/21 07:26:58;;;;;;;11.88;10.40;;;19.50;91.80;;;;;;5071593;28;20357;-53
2021/07/21 07:29:24;;;;;;;14.00;10.32;;;19.60;91.70;;;;;;5071344;28;20036;-56
2021/07/21 07:31:50;;;;;;;13.85;10.80;;;19.70;91.60;;;;;;5070449;28;20115;-52
2021/07/21 07:34:16;;;;;;;13.05;10.25;;;19.80;91.50;;;;;;5071032;28;20045;-53
2021/07/21 07:36:42;;;;;;;13.20;10.27;;;19.80;91.50;;;;;;5053240;28;20087;-53
2021/07/21 07:39:08;;;;;;;14.00;11.13;;;19.80;91.60;;;;;;5071372;28;20484;-54
2021/07/21 07:41:37;;;;;;;19.83;11.05;;;19.90;91.40;;;;;;5071441;28;20028;-57
2021/07/21 07:44:04;;;;;;;12.20;10.43;;;19.90;91.50;;;;;;5073364;28;20442;-54
2021/07/21 07:46:30;;;;;;;12.98;10.63;;;20.00;91.20;;;;;;5071414;28;20041;-50
2021/07/21 07:48:57;;;;;;;14.27;11.35;;;19.90;91.40;;;;;;5071179;28;20036;-50
2021/07/21 07:51:23;;;;;;;14.95;11.07;;;20.00;91.70;;;;;;5071079;28;20378;-50
2021/07/21 07:53:48;;;;;;;14.32;10.70;;;20.10;91.00;;;;;;5071410;28;20162;-55
2021/07/21 07:56:14;;;;;;;14.02;10.43;;;20.10;91.10;;;;;;5070902;28;20025;-49
2021/07/21 07:58:40;;;;;;;12.10;9.70;;;20.10;91.00;;;;;;5071310;28;20154;-53
2021/07/21 08:01:05;;;;;;;11.75;9.80;;;20.20;91.10;;;;;;5073312;28;20066;-56
2021/07/21 08:03:31;;;;;;;12.65;10.27;;;20.30;91.00;;;;;;5074193;28;20102;-58
2021/07/21 08:05:59;;;;;;;15.25;11.23;;;20.40;90.80;;;;;;5072312;28;20408;-50
2021/07/21 08:08:28;;;;;;;13.10;10.15;;;20.40;90.10;;;;;;5074710;28;20447;-55
2021/07/21 08:10:54;;;;;;;11.25;9.70;;;20.30;90.20;;;;;;5075227;28;20127;-56
2021/07/21 08:13:21;;;;;;;16.08;10.52;;;20.40;90.30;;;;;;5073901;28;20039;-53
2021/07/21 08:15:47;;;;;;;13.20;11.48;;;20.50;90.20;;;;;;5074429;28;20036;-54
2021/07/21 08:18:13;;;;;;;14.40;11.60;;;20.60;90.10;;;;;;5074785;28;20032;-54
2021/07/21 08:20:40;;;;;;;13.95;10.65;;;20.50;90.30;;;;;;5074761;28;20059;-54
2021/07/21 08:23:06;;;;;;;12.82;10.63;;;20.50;89.20;;;;;;5074787;28;20040;-56
2021/07/21 08:25:32;;;;;;;14.30;10.93;;;20.20;90.30;;;;;;5074684;28;20028;-56
2021/07/21 08:27:57;;;;;;;16.08;12.07;;;20.50;89.30;;;;;;5074489;28;20044;-51
2021/07/21 08:30:24;;;;;;;15.15;11.05;;;20.50;90.10;;;;;;5074493;28;20115;-53
2021/07/21 08:32:52;;;;;;;13.35;10.20;;;20.60;89.50;;;;;;5074363;28;20025;-54
2021/07/21 08:35:20;;;;;;;13.48;11.40;;;20.70;89.20;;;;;;5076294;28;20060;-53
2021/07/21 08:37:46;;;;;;;13.05;10.77;;;20.80;87.80;;;;;;5074194;28;20060;-55
2021/07/21 08:40:13;;;;;;;12.63;10.90;;;20.70;88.60;;;;;;5074711;28;20550;-55
2021/07/21 08:42:39;;;;;;;15.45;11.05;;;20.90;88.40;;;;;;5074690;28;20040;-51
2021/07/21 08:45:07;;;;;;;12.30;10.80;;;20.70;88.70;;;;;;5074739;28;20037;-55
2021/07/21 08:47:33;;;;;;;13.68;11.18;;;20.90;87.50;;;;;;5073993;28;20044;-54
2021/07/21 08:49:59;;;;;;;11.40;10.20;;;20.60;87.70;;;;;;5074004;28;20722;-54
2021/07/21 08:52:26;;;;;;;12.48;10.35;;;20.60;88.00;;;;;;5073842;28;20025;-54
2021/07/21 08:54:58;;;;;;;16.42;13.13;;;20.80;87.30;;;;;;5074193;28;20444;-53
2021/07/21 08:57:24;;;;;;;14.82;11.02;;;20.80;86.90;;;;;;5073591;28;20476;-53
2021/07/21 08:59:51;;;;;;;10.70;9.60;;;20.90;85.80;;;;;;5073501;28;20056;-50
2021/07/21 09:02:17;;;;;;;10.75;9.60;;;20.90;84.60;;;;;;5073970;28;20056;-54
2021/07/21 09:04:42;;;;;;;11.13;9.45;;;20.90;84.60;;;;;;5074260;28;20094;-55
2021/07/21 09:07:09;;;;;;;14.07;10.50;;;20.90;85.80;;;;;;5073545;28;20484;-49
2021/07/21 09:09:37;;;;;;;15.45;10.38;;;21.00;85.10;;;;;;5075907;28;20032;-55
2021/07/21 09:12:06;;;;;;;13.93;9.88;;;20.90;85.00;;;;;;5073294;28;20426;-55
2021/07/21 09:14:31;;;;;;;11.73;10.13;;;20.90;84.60;;;;;;5073578;28;20033;-53
2021/07/21 09:17:07;;;;;;;12.85;10.35;;;20.90;84.90;;;;;;5073391;28;20534;-51
2021/07/21 09:19:34;;;;;;;11.23;9.18;;;21.00;84.80;;;;;;5073205;28;20388;-55
2021/07/21 09:22:24;;;;;;;14.68;8.93;;;21.20;84.70;;;;;;5073754;28;20078;-52
2021/07/21 09:25:13;;;;;;;13.35;10.00;;;21.10;84.50;;;;;;5073934;28;20042;-55
2021/07/21 09:27:40;;;;;;;10.90;9.30;;;21.10;83.70;;;;;;5074818;28;20074;-51
2021/07/21 09:30:07;;;;;;;11.65;9.73;;;21.20;83.60;;;;;;5073517;28;20074;-52
2021/07/21 09:32:52;;;;;;;12.38;9.32;;;21.20;84.40;;;;;;5072723;28;20090;-53
2021/07/21 09:35:19;;;;;;;12.13;10.23;;;21.30;83.90;;;;;;5073523;28;20500;-50
2021/07/21 09:37:45;;;;;;;14.73;9.73;;;21.40;82.80;;;;;;5072669;28;20614;-52
2021/07/21 09:40:12;;;;;;;13.88;10.48;;;21.40;82.40;;;;;;5073467;28;20038;-53
2021/07/21 09:42:38;;;;;;;11.93;9.52;;;21.40;81.90;;;;;;5073229;28;20048;-54
2021/07/21 09:45:12;;;;;;;11.85;9.57;;;21.40;81.80;;;;;;5072932;28;20383;-52
2021/07/21 09:47:42;;;;;;;10.55;8.82;;;21.40;82.60;;;;;;5076376;28;20035;-52
2021/07/21 09:50:14;;;;;;;11.50;9.02;;;21.50;81.20;;;;;;5078972;28;20586;-56
2021/07/21 09:52:47;;;;;;;12.50;9.50;;;21.70;80.00;;;;;;5080018;28;20103;-55
2021/07/21 09:55:15;;;;;;;14.73;9.23;;;21.80;80.20;;;;;;5079361;28;20032;-55
2021/07/21 09:57:42;;;;;;;10.85;8.52;;;21.70;80.70;;;;;;5084500;28;20120;-57
2021/07/21 10:00:21;;;;;;;10.65;8.70;;;21.90;80.20;;;;;;5090980;28;20487;-53
2021/07/21 10:02:47;;;;;;;10.18;8.73;;;22.00;79.20;;;;;;5078975;28;20032;-55
2021/07/21 10:05:13;;;;;;;13.05;8.95;;;22.10;79.20;;;;;;5072967;28;20033;-53
2021/07/21 10:10:21;;;;;;;14.35;9.85;;;22.30;78.90;;;;;;5079510;28;20078;-53
2021/07/21 10:13:07;;;;;;;10.73;8.43;;;22.40;78.50;;;;;;5075135;28;20107;-55
2021/07/21 10:15:34;;;;;;;10.80;8.27;;;22.50;77.90;;;;;;5052367;28;20112;-51
2021/07/21 10:18:15;;;;;;;9.85;7.97;;;22.50;77.50;;;;;;5052219;28;20033;-50
2021/07/21 10:20:44;;;;;;;9.43;8.18;;;22.40;77.40;;;;;;5072164;28;20133;-56
2021/07/21 10:23:13;;;;;;;11.32;8.35;;;22.40;77.10;;;;;;5070938;28;20034;-54
2021/07/21 10:25:39;;;;;;;9.77;8.43;;;22.50;76.90;;;;;;5071716;28;20017;-54
2021/07/21 10:28:06;;;;;;;10.90;8.57;;;22.60;76.70;;;;;;5072159;28;20044;-53
2021/07/21 10:30:34;;;;;;;9.30;7.70;;;22.80;76.50;;;;;;5071607;28;20040;-55
2021/07/21 10:33:00;;;;;;;10.70;8.98;;;22.70;76.70;;;;;;5072515;28;20032;-53
2021/07/21 10:35:27;;;;;;;10.15;8.23;;;22.60;77.60;;;;;;5070712;28;20032;-52
2021/07/21 10:37:54;;;;;;;8.73;7.80;;;22.50;77.00;;;;;;5056046;28;20036;-57
2021/07/21 10:40:21;;;;;;;9.45;7.72;;;22.60;76.20;;;;;;5052481;28;20037;-50
2021/07/21 10:42:52;;;;;;;10.63;7.93;;;22.70;75.30;;;;;;5052122;28;20485;-54
2021/07/21 10:45:20;;;;;;;11.70;8.65;;;22.60;76.00;;;;;;5052041;28;20067;-51
2021/07/21 10:47:57;;;;;;;20.33;9.07;;;22.40;76.80;;;;;;5052403;28;20045;-53
2021/07/21 10:50:30;;;;;;;9.40;7.15;;;22.40;76.90;;;;;;5051577;28;20410;-56
2021/07/21 10:59:13;;;;;;;9.85;7.97;;;22.60;75.50;;;;;;5052754;28;20029;-53
2021/07/21 11:01:48;;;;;;;9.20;7.95;;;22.60;75.70;;;;;;5061329;28;20728;-56
2021/07/21 11:04:13;;;;;;;;;;;22.80;76.30;;;;;;5072823;28;20035;-54
2021/07/21 11:06:47;;;;;;;12.15;8.60;;;22.70;75.80;;;;;;5071670;28;19988;-53
2021/07/21 11:09:28;;;;;;;10.38;7.85;;;22.60;76.70;;;;;;5071597;28;20044;-54
2021/07/21 11:11:58;;;;;;;9.88;8.88;;;22.40;77.00;;;;;;5071782;28;20028;-55
2021/07/21 11:14:33;;;;;;;12.18;7.75;;;22.30;77.60;;;;;;5073172;28;20032;-56
2021/07/21 11:17:07;;;;;;;10.20;8.05;;;22.20;77.40;;;;;;5072290;28;20030;-52
2021/07/21 11:19:42;;;;;;;12.07;7.72;;;22.30;76.40;;;;;;5071684;28;20037;-49
2021/07/21 11:22:18;;;;;;;9.02;7.95;;;22.10;77.00;;;;;;5071890;28;20488;-54
2021/07/21 11:25:24;;;;;;;10.07;8.02;;;21.90;78.40;;;;;;5073322;28;20115;-55
2021/07/21 11:28:03;;;;;;;11.00;8.00;;;21.90;78.40;;;;;;5065773;28;20400;-52
2021/07/21 11:30:49;;;;;;;10.05;7.75;;;21.90;78.60;;;;;;5071378;28;20028;-53
2021/07/21 11:33:46;;;;;;;9.93;6.85;;;21.90;77.60;;;;;;5071776;28;20059;-50
2021/07/21 11:36:32;;;;;;;15.45;10.77;;;21.90;77.30;;;;;;5070284;28;20032;-56
2021/07/21 11:38:57;;;;;;;11.20;8.27;;;21.90;77.30;;;;;;5072930;28;20041;-58
2021/07/21 11:41:48;;;;;;;10.07;6.88;;;21.80;77.70;;;;;;5078865;28;20119;-57
2021/07/21 11:44:28;;;;;;;9.27;6.95;;;21.60;77.40;;;;;;5078761;28;20448;-52
2021/07/21 11:46:55;;;;;;;7.55;6.68;;;21.60;77.90;;;;;;5075089;28;20036;-53
2021/07/21 11:49:23;;;;;;;9.40;7.25;;;21.60;78.50;;;;;;5075968;28;20036;-57
2021/07/21 11:51:53;;;;;;;8.38;6.80;;;21.60;78.70;;;;;;5075398;28;20028;-53
2021/07/21 11:54:30;;;;;;;12.45;7.25;;;21.60;78.80;;;;;;5075427;28;20071;-54
2021/07/21 11:56:58;;;;;;;10.48;7.22;;;21.60;79.00;;;;;;5075321;28;20021;-50
2021/07/21 11:59:30;;;;;;;9.45;7.22;;;21.40;80.10;;;;;;5075835;28;20020;-56
2021/07/21 12:02:14;;;;;;;9.98;7.65;;;21.60;79.00;;;;;;5075140;28;20146;-55
2021/07/21 12:04:41;;;;;;;8.60;6.85;;;21.60;78.60;;;;;;5069790;28;20028;-52
2021/07/21 12:07:08;;;;;;;9.98;6.50;;;21.70;78.30;;;;;;5066923;28;20067;-56
2021/07/21 12:09:36;;;;;;;7.55;6.75;;;21.70;78.60;;;;;;5074493;28;20040;-54
2021/07/21 12:12:05;;;;;;;8.43;6.50;;;21.70;78.00;;;;;;5078500;28;20025;-53
2021/07/21 12:14:31;;;;;;;9.20;6.93;;;21.70;77.60;;;;;;5078097;28;20052;-56
2021/07/21 12:17:11;;;;;;;9.05;6.45;;;21.70;79.00;;;;;;5079037;28;20033;-55
2021/07/21 12:19:42;;;;;;;8.98;7.57;;;21.80;79.30;;;;;;5073508;28;20028;-54
2021/07/21 12:22:12;;;;;;;10.50;8.38;;;21.60;79.90;;;;;;5061793;28;20052;-54
2021/07/21 12:24:50;;;;;;;10.60;7.10;;;21.50;80.80;;;;;;5054002;28;20110;-50
2021/07/21 12:27:31;;;;;;;9.13;7.70;;;21.50;81.10;;;;;;5069843;28;20107;-57
2021/07/21 12:29:59;;;;;;;11.75;7.50;;;21.50;80.90;;;;;;5074323;28;20028;-55
2021/07/21 12:32:25;;;;;;;11.93;7.82;;;21.60;80.80;;;;;;5074481;28;20027;-55
2021/07/21 12:34:52;;;;;;;9.98;8.00;;;21.70;80.90;;;;;;5074063;28;20085;-56
2021/07/21 12:37:20;;;;;;;11.82;8.10;;;21.80;80.20;;;;;;5073649;28;20075;-53
2021/07/21 12:39:48;;;;;;;10.90;8.05;;;21.70;80.10;;;;;;5073910;28;20535;-51
2021/07/21 12:42:20;;;;;;;9.05;7.90;;;21.70;80.20;;;;;;5074599;28;20032;-53
2021/07/21 12:44:48;;;;;;;10.15;8.13;;;21.80;80.50;;;;;;5074491;28;20115;-54
2021/07/21 12:47:16;;;;;;;11.80;7.88;;;21.80;79.80;;;;;;5073562;28;20454;-53
2021/07/21 12:49:44;;;;;;;13.55;8.38;;;21.60;80.10;;;;;;5074501;28;20028;-55
2021/07/21 12:52:17;;;;;;;12.30;8.20;;;21.70;80.40;;;;;;5075113;28;20385;-57